Seago Piraeus — OXVD2 — position and weather

sailwx.info

Track history (hours):
 
Tides and Currents Weather Stations Pressure Air Temp Water Temp Dewpoint Dewpoint Depression Visibility Wind Speed Wind Dir Waves Ship Positions

Seago Piraeus

Last reported at 2015-Aug-02 06:27 UTC. Time now 2015-Aug-02 10:18 UTC.
Position N 37°37' E 023°46'.

Length 294 m; draft 12.5 m.

Type: Ship (hazmat cat A). MMSI: 219117000.

Date/timePositionNaut miles runAvg speedWind from/ knotsBaromVisibWave heightAir tempDewpointWater temp
2015-Aug-02 06:27N 37°37' E 023°46'1213.0
2015-Aug-02 05:33N 37°47' E 023°38'1010.1
2015-Aug-02 04:33N 37°57' E 023°36'0 0.0
2015-Aug-02 03:33N 37°57' E 023°36'0 0.0
2015-Aug-02 02:33N 37°57' E 023°36'0 0.0
2015-Aug-02 01:33N 37°57' E 023°36'0 0.0
2015-Aug-02 00:33N 37°57' E 023°36'0 0.0
2015-Aug-01 23:33N 37°57' E 023°36'0 0.0
2015-Aug-01 22:33N 37°57' E 023°36'0 0.0
2015-Aug-01 21:33N 37°57' E 023°36'0 0.0
2015-Aug-01 20:33N 37°57' E 023°36'0 0.0
2015-Aug-01 19:33N 37°57' E 023°36'2 2.3
2015-Aug-01 18:33N 37°55' E 023°36'5 5.1
2015-Aug-01 17:33N 37°50' E 023°39'1010.3
2015-Aug-01 16:33N 37°41' E 023°45'1312.6
2015-Aug-01 15:33N 37°28' E 023°43'1413.6
2015-Aug-01 14:33N 37°15' E 023°39'1312.8
2015-Aug-01 13:33N 37°03' E 023°36'1313.4
2015-Aug-01 12:33N 36°49' E 023°32'1313.2
2015-Aug-01 11:33N 36°38' E 023°24'1613.2
2015-Aug-01 10:19N 36°24' E 023°13'30214.3
2015-Jul-31 13:17N 36°27' E 016°58'1114.9
2015-Jul-31 12:33N 36°27' E 016°44'1514.9
2015-Jul-31 11:33N 36°28' E 016°26'1515.1
2015-Jul-31 10:33N 36°29' E 016°07'1515.0
2015-Jul-31 09:33N 36°29' E 015°48'2115.2
2015-Jul-31 08:11N 36°29' E 015°22'915.0
2015-Jul-31 07:33N 36°29' E 015°11'1514.8
2015-Jul-31 06:33N 36°29' E 014°52'1515.0
2015-Jul-31 05:33N 36°30' E 014°34'1514.9
2015-Jul-31 04:33N 36°34' E 014°16'1514.8
2015-Jul-31 03:33N 36°37' E 013°58'1515.2
2015-Jul-31 02:33N 36°41' E 013°39'1615.4
2015-Jul-31 01:33N 36°45' E 013°21'1515.2
2015-Jul-31 00:33N 36°48' E 013°02'1514.9
2015-Jul-30 23:33N 36°50' E 012°44'1515.2
2015-Jul-30 22:33N 36°53' E 012°25'1615.7
2015-Jul-30 21:33N 36°57' E 012°06'1515.4
2015-Jul-30 20:33N 37°05' E 011°49'1514.5
2015-Jul-30 19:33N 37°12' E 011°34'1514.8
2015-Jul-30 18:33N 37°19' E 011°18'1514.9
2015-Jul-30 17:33N 37°25' E 011°00'1514.8
2015-Jul-30 16:33N 37°29' E 010°42'1515.0
2015-Jul-30 15:33N 37°33' E 010°24'1514.7
2015-Jul-30 14:33N 37°35' E 010°06'1514.7
2015-Jul-30 13:33N 37°38' E 009°47'1514.9
2015-Jul-30 12:33N 37°42' E 009°29'1514.7
2015-Jul-30 11:33N 37°46' E 009°11'1515.1
2015-Jul-30 10:33N 37°49' E 008°53'1515.1
2015-Jul-30 09:33N 37°53' E 008°34'1514.9
2015-Jul-30 08:33N 37°56' E 008°16'1514.8
2015-Jul-30 07:32N 37°60' E 007°58'9514.8
2015-Jul-30 01:07N 38°22' E 005°60'914.1
2015-Jul-30 00:29N 38°24' E 005°49'4613.9
2015-Jul-29 21:12N 38°36' E 004°52'3613.7
2015-Jul-29 18:34N 38°43' E 004°07'1613.9
2015-Jul-29 17:24N 38°47' E 003°47'1213.7
2015-Jul-29 16:33N 38°50' E 003°32'1918.8
2015-Jul-29 15:33N 38°55' E 003°09'1211.7
2015-Jul-29 14:33N 38°57' E 002°54'1111.5
2015-Jul-29 13:33N 38°60' E 002°40'1414.0
2015-Jul-29 12:33N 39°03' E 002°22'1513.9
2015-Jul-29 11:30N 39°07' E 002°04'1413.8
2015-Jul-29 10:28N 39°10' E 001°46'1313.7
2015-Jul-29 09:32N 39°12' E 001°30'3214.4
2015-Jul-29 07:18N 39°17' E 000°49'4413.9
2015-Jul-29 04:09N 39°23' W 000°07'812.7
2015-Jul-29 03:33N 39°25' W 000°17'2 2.2
2015-Jul-29 02:32N 39°26' W 000°19'0 0.0
2015-Jul-29 01:11N 39°26' W 000°19'0 0.0
2015-Jul-28 22:23N 39°26' W 000°19'0 0.0
2015-Jul-28 21:29N 39°26' W 000°19'0 0.0
2015-Jul-28 19:26N 39°26' W 000°19'0 0.0
2015-Jul-28 18:32N 39°26' W 000°19'0 0.0
2015-Jul-28 17:11N 39°26' W 000°19'0 0.0
2015-Jul-28 15:29N 39°26' W 000°19'0 0.0
2015-Jul-28 14:29N 39°26' W 000°19'0 0.0
2015-Jul-28 13:29N 39°26' W 000°19'0 0.0
2015-Jul-28 11:32N 39°26' W 000°19'0 0.0
2015-Jul-28 10:29N 39°26' W 000°19'0 0.0
2015-Jul-28 09:29N 39°26' W 000°19'0 0.0
2015-Jul-28 08:33N 39°26' W 000°19'8 8.3
2015-Jul-28 07:33N 39°21' W 000°11'5112.3
2015-Jul-28 03:21N 38°37' E 000°24'1213.6
2015-Jul-28 02:28N 38°27' E 000°16'1313.5
2015-Jul-28 01:32N 38°17' E 000°06'1413.6
2015-Jul-28 00:30N 38°05' W 000°04'1313.5
2015-Jul-27 23:33N 37°55' W 000°13'1313.6
2015-Jul-27 22:33N 37°43' W 000°23'1413.5
2015-Jul-27 21:33N 37°32' W 000°33'1413.7
2015-Jul-27 20:33N 37°23' W 000°46'1413.5
2015-Jul-27 19:33N 37°14' W 000°59'1413.8
2015-Jul-27 18:33N 37°05' W 001°11'1413.6
2015-Jul-27 17:33N 36°55' W 001°23'1414.0
2015-Jul-27 16:33N 36°46' W 001°36'1413.8
2015-Jul-27 15:34N 36°38' W 001°50'1413.9
2015-Jul-27 14:33N 36°28' W 002°03'1413.5
2015-Jul-27 13:33N 36°21' W 002°17'25214.0
2015-Jul-26 19:32N 36°10' W 007°30'611.1
2015-Jul-26 19:00N 36°06' W 007°36'1125.1 310 / 141014.110.8 1.022.918.721.0
2015-Jul-26 18:34N 36°13' W 007°46'3014.1
2015-Jul-26 16:24N 36°22' W 008°23'1214.1
2015-Jul-26 15:33N 36°25' W 008°37'1414.7
2015-Jul-26 14:34N 36°29' W 008°54'1413.7
2015-Jul-26 13:33N 36°33' W 009°10'1313.3
2015-Jul-26 12:33N 36°41' W 009°24'1613.3
2015-Jul-26 11:20N 36°54' W 009°36'1114.0
2015-Jul-26 10:33N 37°05' W 009°39'1413.9
2015-Jul-26 09:33N 37°19' W 009°42'1414.0
2015-Jul-26 08:33N 37°32' W 009°46'1413.9
2015-Jul-26 07:33N 37°46' W 009°50'1414.2
2015-Jul-26 06:33N 37°60' W 009°54'1414.2
2015-Jul-26 05:34N 38°14' W 009°57'1414.0
2015-Jul-26 04:33N 38°27' W 010°01'1414.0
2015-Jul-26 03:33N 38°41' W 010°05'1413.8
2015-Jul-26 02:33N 38°55' W 010°06'1414.4
2015-Jul-26 01:34N 39°09' W 010°07'1414.1
2015-Jul-26 00:33N 39°23' W 010°07'1414.2
2015-Jul-25 23:33N 39°38' W 010°07'1414.3
2015-Jul-25 22:33N 39°52' W 010°06'1414.2
2015-Jul-25 21:33N 40°06' W 010°06'1413.9
2015-Jul-25 20:33N 40°20' W 010°06'1414.2
2015-Jul-25 19:33N 40°34' W 010°06'1414.2
2015-Jul-25 18:33N 40°48' W 010°06'1413.9
2015-Jul-25 17:33N 41°02' W 010°06'1413.8
2015-Jul-25 16:33N 41°16' W 010°06'1914.1
2015-Jul-25 15:13N 41°35' W 010°06'56812.6
2015-Jul-23 18:04N 49°49' W 003°26'714.2
2015-Jul-23 17:33N 49°53' W 003°16'1914.1
2015-Jul-23 16:12N 50°00' W 002°49'2613.0
2015-Jul-23 14:14N 50°08' W 002°10'3111.1
2015-Jul-23 11:25N 50°16' W 001°23'1111.5
2015-Jul-23 10:27N 50°20' W 001°07'1212.8
2015-Jul-23 09:32N 50°24' W 000°50'1413.9
2015-Jul-23 08:33N 50°27' W 000°29'1514.2
2015-Jul-23 07:31N 50°31' W 000°06'1314.1
2015-Jul-23 06:33N 50°34' E 000°14'  
Track history (hours):
 
Tides and Currents Weather Stations Pressure Air Temp Water Temp Dewpoint Dewpoint Depression Visibility Wind Speed Wind Dir Waves Ship Positions

Seago Piraeus

Last reported at 2015-Aug-02 06:27 UTC. Time now 2015-Aug-02 10:18 UTC.
Position N 37°37' E 023°46'.

Length 294 m; draft 12.5 m.

Type: Ship (hazmat cat A). MMSI: 219117000.

Date/timePositionNaut miles runAvg speedWind from/ knotsBaromVisibWave heightAir tempDewpointWater temp
2015-Aug-02 06:27N 37°37' E 023°46'1213.0
2015-Aug-02 05:33N 37°47' E 023°38'1010.1
2015-Aug-02 04:33N 37°57' E 023°36'0 0.0
2015-Aug-02 03:33N 37°57' E 023°36'0 0.0
2015-Aug-02 02:33N 37°57' E 023°36'0 0.0
2015-Aug-02 01:33N 37°57' E 023°36'0 0.0
2015-Aug-02 00:33N 37°57' E 023°36'0 0.0
2015-Aug-01 23:33N 37°57' E 023°36'0 0.0
2015-Aug-01 22:33N 37°57' E 023°36'0 0.0
2015-Aug-01 21:33N 37°57' E 023°36'0 0.0
2015-Aug-01 20:33N 37°57' E 023°36'0 0.0
2015-Aug-01 19:33N 37°57' E 023°36'2 2.3
2015-Aug-01 18:33N 37°55' E 023°36'5 5.1
2015-Aug-01 17:33N 37°50' E 023°39'1010.3
2015-Aug-01 16:33N 37°41' E 023°45'1312.6
2015-Aug-01 15:33N 37°28' E 023°43'1413.6
2015-Aug-01 14:33N 37°15' E 023°39'1312.8
2015-Aug-01 13:33N 37°03' E 023°36'1313.4
2015-Aug-01 12:33N 36°49' E 023°32'1313.2
2015-Aug-01 11:33N 36°38' E 023°24'1613.2
2015-Aug-01 10:19N 36°24' E 023°13'30214.3
2015-Jul-31 13:17N 36°27' E 016°58'1114.9
2015-Jul-31 12:33N 36°27' E 016°44'1514.9
2015-Jul-31 11:33N 36°28' E 016°26'1515.1
2015-Jul-31 10:33N 36°29' E 016°07'1515.0
2015-Jul-31 09:33N 36°29' E 015°48'2115.2
2015-Jul-31 08:11N 36°29' E 015°22'915.0
2015-Jul-31 07:33N 36°29' E 015°11'1514.8
2015-Jul-31 06:33N 36°29' E 014°52'1515.0
2015-Jul-31 05:33N 36°30' E 014°34'1514.9
2015-Jul-31 04:33N 36°34' E 014°16'1514.8
2015-Jul-31 03:33N 36°37' E 013°58'1515.2
2015-Jul-31 02:33N 36°41' E 013°39'1615.4
2015-Jul-31 01:33N 36°45' E 013°21'1515.2
2015-Jul-31 00:33N 36°48' E 013°02'1514.9
2015-Jul-30 23:33N 36°50' E 012°44'1515.2
2015-Jul-30 22:33N 36°53' E 012°25'1615.7
2015-Jul-30 21:33N 36°57' E 012°06'1515.4
2015-Jul-30 20:33N 37°05' E 011°49'1514.5
2015-Jul-30 19:33N 37°12' E 011°34'1514.8
2015-Jul-30 18:33N 37°19' E 011°18'1514.9
2015-Jul-30 17:33N 37°25' E 011°00'1514.8
2015-Jul-30 16:33N 37°29' E 010°42'1515.0
2015-Jul-30 15:33N 37°33' E 010°24'1514.7
2015-Jul-30 14:33N 37°35' E 010°06'1514.7
2015-Jul-30 13:33N 37°38' E 009°47'1514.9
2015-Jul-30 12:33N 37°42' E 009°29'1514.7
2015-Jul-30 11:33N 37°46' E 009°11'1515.1
2015-Jul-30 10:33N 37°49' E 008°53'1515.1
2015-Jul-30 09:33N 37°53' E 008°34'1514.9
2015-Jul-30 08:33N 37°56' E 008°16'1514.8
2015-Jul-30 07:32N 37°60' E 007°58'9514.8
2015-Jul-30 01:07N 38°22' E 005°60'914.1
2015-Jul-30 00:29N 38°24' E 005°49'4613.9
2015-Jul-29 21:12N 38°36' E 004°52'3613.7
2015-Jul-29 18:34N 38°43' E 004°07'1613.9
2015-Jul-29 17:24N 38°47' E 003°47'1213.7
2015-Jul-29 16:33N 38°50' E 003°32'1918.8
2015-Jul-29 15:33N 38°55' E 003°09'1211.7
2015-Jul-29 14:33N 38°57' E 002°54'1111.5
2015-Jul-29 13:33N 38°60' E 002°40'1414.0
2015-Jul-29 12:33N 39°03' E 002°22'1513.9
2015-Jul-29 11:30N 39°07' E 002°04'1413.8
2015-Jul-29 10:28N 39°10' E 001°46'1313.7
2015-Jul-29 09:32N 39°12' E 001°30'3214.4
2015-Jul-29 07:18N 39°17' E 000°49'4413.9
2015-Jul-29 04:09N 39°23' W 000°07'812.7
2015-Jul-29 03:33N 39°25' W 000°17'2 2.2
2015-Jul-29 02:32N 39°26' W 000°19'0 0.0
2015-Jul-29 01:11N 39°26' W 000°19'0 0.0
2015-Jul-28 22:23N 39°26' W 000°19'0 0.0
2015-Jul-28 21:29N 39°26' W 000°19'0 0.0
2015-Jul-28 19:26N 39°26' W 000°19'0 0.0
2015-Jul-28 18:32N 39°26' W 000°19'0 0.0
2015-Jul-28 17:11N 39°26' W 000°19'0 0.0
2015-Jul-28 15:29N 39°26' W 000°19'0 0.0
2015-Jul-28 14:29N 39°26' W 000°19'0 0.0
2015-Jul-28 13:29N 39°26' W 000°19'0 0.0
2015-Jul-28 11:32N 39°26' W 000°19'0 0.0
2015-Jul-28 10:29N 39°26' W 000°19'0 0.0
2015-Jul-28 09:29N 39°26' W 000°19'0 0.0
2015-Jul-28 08:33N 39°26' W 000°19'8 8.3
2015-Jul-28 07:33N 39°21' W 000°11'5112.3
2015-Jul-28 03:21N 38°37' E 000°24'1213.6
2015-Jul-28 02:28N 38°27' E 000°16'1313.5
2015-Jul-28 01:32N 38°17' E 000°06'1413.6
2015-Jul-28 00:30N 38°05' W 000°04'1313.5
2015-Jul-27 23:33N 37°55' W 000°13'1313.6
2015-Jul-27 22:33N 37°43' W 000°23'1413.5
2015-Jul-27 21:33N 37°32' W 000°33'1413.7
2015-Jul-27 20:33N 37°23' W 000°46'1413.5
2015-Jul-27 19:33N 37°14' W 000°59'1413.8
2015-Jul-27 18:33N 37°05' W 001°11'1413.6
2015-Jul-27 17:33N 36°55' W 001°23'1414.0
2015-Jul-27 16:33N 36°46' W 001°36'1413.8
2015-Jul-27 15:34N 36°38' W 001°50'1413.9
2015-Jul-27 14:33N 36°28' W 002°03'1413.5
2015-Jul-27 13:33N 36°21' W 002°17'25214.0
2015-Jul-26 19:32N 36°10' W 007°30'611.1
2015-Jul-26 19:00N 36°06' W 007°36'1125.1 310 / 141014.110.8 1.022.918.721.0
2015-Jul-26 18:34N 36°13' W 007°46'3014.1
2015-Jul-26 16:24N 36°22' W 008°23'1214.1
2015-Jul-26 15:33N 36°25' W 008°37'1414.7
2015-Jul-26 14:34N 36°29' W 008°54'1413.7
2015-Jul-26 13:33N 36°33' W 009°10'1313.3
2015-Jul-26 12:33N 36°41' W 009°24'1613.3
2015-Jul-26 11:20N 36°54' W 009°36'1114.0
2015-Jul-26 10:33N 37°05' W 009°39'1413.9
2015-Jul-26 09:33N 37°19' W 009°42'1414.0
2015-Jul-26 08:33N 37°32' W 009°46'1413.9
2015-Jul-26 07:33N 37°46' W 009°50'1414.2
2015-Jul-26 06:33N 37°60' W 009°54'1414.2
2015-Jul-26 05:34N 38°14' W 009°57'1414.0
2015-Jul-26 04:33N 38°27' W 010°01'1414.0
2015-Jul-26 03:33N 38°41' W 010°05'1413.8
2015-Jul-26 02:33N 38°55' W 010°06'1414.4
2015-Jul-26 01:34N 39°09' W 010°07'1414.1
2015-Jul-26 00:33N 39°23' W 010°07'1414.2
2015-Jul-25 23:33N 39°38' W 010°07'1414.3
2015-Jul-25 22:33N 39°52' W 010°06'1414.2
2015-Jul-25 21:33N 40°06' W 010°06'1413.9
2015-Jul-25 20:33N 40°20' W 010°06'1414.2
2015-Jul-25 19:33N 40°34' W 010°06'1414.2
2015-Jul-25 18:33N 40°48' W 010°06'1413.9
2015-Jul-25 17:33N 41°02' W 010°06'1413.8
2015-Jul-25 16:33N 41°16' W 010°06'1914.1
2015-Jul-25 15:13N 41°35' W 010°06'56812.6
2015-Jul-23 18:04N 49°49' W 003°26'714.2
2015-Jul-23 17:33N 49°53' W 003°16'1914.1
2015-Jul-23 16:12N 50°00' W 002°49'2613.0
2015-Jul-23 14:14N 50°08' W 002°10'3111.1
2015-Jul-23 11:25N 50°16' W 001°23'1111.5
2015-Jul-23 10:27N 50°20' W 001°07'1212.8
2015-Jul-23 09:32N 50°24' W 000°50'1413.9
2015-Jul-23 08:33N 50°27' W 000°29'1514.2
2015-Jul-23 07:31N 50°31' W 000°06'1314.1
2015-Jul-23 06:33N 50°34' E 000°14'  

Dump ship's entire track history